sensor_id;sensor_type;location;lat;lon;timestamp;P1;durP1;ratioP1;P2;durP2;ratioP2
13552;SDS011;6847;48.830;9.116;2023-08-20T00:01:56;0.10;;;0.10;;
13552;SDS011;6847;48.830;9.116;2023-08-20T00:04:25;0.10;;;0.10;;
13552;SDS011;6847;48.830;9.116;2023-08-20T00:06:53;0.10;;;0.10;;
13552;SDS011;6847;48.830;9.116;2023-08-20T00:09:21;0.10;;;0.10;;
13552;SDS011;6847;48.830;9.116;2023-08-20T00:11:49;0.20;;;0.20;;
13552;SDS011;6847;48.830;9.116;2023-08-20T00:14:18;0.10;;;0.10;;
13552;SDS011;6847;48.830;9.116;2023-08-20T00:16:49;0.10;;;0.10;;
13552;SDS011;6847;48.830;9.116;2023-08-20T00:19:18;0.10;;;0.10;;
13552;SDS011;6847;48.830;9.116;2023-08-20T00:21:45;0.17;;;0.17;;
13552;SDS011;6847;48.830;9.116;2023-08-20T00:24:12;0.10;;;0.10;;
13552;SDS011;6847;48.830;9.116;2023-08-20T00:26:42;0.15;;;0.15;;
13552;SDS011;6847;48.830;9.116;2023-08-20T00:29:09;0.10;;;0.10;;
13552;SDS011;6847;48.830;9.116;2023-08-20T00:31:35;0.10;;;0.10;;
13552;SDS011;6847;48.830;9.116;2023-08-20T00:34:04;0.10;;;0.10;;
13552;SDS011;6847;48.830;9.116;2023-08-20T00:36:30;0.10;;;0.10;;
13552;SDS011;6847;48.830;9.116;2023-08-20T00:38:57;0.10;;;0.10;;
13552;SDS011;6847;48.830;9.116;2023-08-20T00:41:23;0.10;;;0.10;;
13552;SDS011;6847;48.830;9.116;2023-08-20T00:43:50;0.10;;;0.10;;
13552;SDS011;6847;48.830;9.116;2023-08-20T00:46:17;0.10;;;0.10;;
13552;SDS011;6847;48.830;9.116;2023-08-20T00:48:44;0.10;;;0.10;;
13552;SDS011;6847;48.830;9.116;2023-08-20T00:51:12;0.10;;;0.10;;
13552;SDS011;6847;48.830;9.116;2023-08-20T00:53:39;0.10;;;0.10;;
13552;SDS011;6847;48.830;9.116;2023-08-20T00:56:06;0.10;;;0.10;;
13552;SDS011;6847;48.830;9.116;2023-08-20T00:58:33;0.10;;;0.10;;
13552;SDS011;6847;48.830;9.116;2023-08-20T01:00:59;0.10;;;0.10;;
13552;SDS011;6847;48.830;9.116;2023-08-20T01:03:26;0.10;;;0.10;;
13552;SDS011;6847;48.830;9.116;2023-08-20T01:05:53;0.10;;;0.10;;
13552;SDS011;6847;48.830;9.116;2023-08-20T01:08:36;0.10;;;0.10;;
13552;SDS011;6847;48.830;9.116;2023-08-20T01:11:10;0.10;;;0.10;;
13552;SDS011;6847;48.830;9.116;2023-08-20T01:13:42;0.10;;;0.10;;
13552;SDS011;6847;48.830;9.116;2023-08-20T01:16:11;0.10;;;0.10;;
13552;SDS011;6847;48.830;9.116;2023-08-20T01:18:38;0.20;;;0.20;;
13552;SDS011;6847;48.830;9.116;2023-08-20T01:21:05;0.10;;;0.10;;
13552;SDS011;6847;48.830;9.116;2023-08-20T01:26:40;0.10;;;0.10;;
13552;SDS011;6847;48.830;9.116;2023-08-20T01:29:37;0.10;;;0.10;;
13552;SDS011;6847;48.830;9.116;2023-08-20T01:32:05;0.10;;;0.10;;
13552;SDS011;6847;48.830;9.116;2023-08-20T01:34:33;0.10;;;0.10;;
13552;SDS011;6847;48.830;9.116;2023-08-20T01:37:00;0.10;;;0.10;;
13552;SDS011;6847;48.830;9.116;2023-08-20T01:39:26;0.10;;;0.10;;
13552;SDS011;6847;48.830;9.116;2023-08-20T01:41:56;0.10;;;0.10;;
13552;SDS011;6847;48.830;9.116;2023-08-20T01:44:26;0.10;;;0.10;;
13552;SDS011;6847;48.830;9.116;2023-08-20T01:46:55;0.10;;;0.10;;
13552;SDS011;6847;48.830;9.116;2023-08-20T01:49:24;0.10;;;0.10;;
13552;SDS011;6847;48.830;9.116;2023-08-20T01:51:51;0.10;;;0.10;;
13552;SDS011;6847;48.830;9.116;2023-08-20T01:54:18;0.10;;;0.10;;
13552;SDS011;6847;48.830;9.116;2023-08-20T01:56:45;0.15;;;0.15;;
13552;SDS011;6847;48.830;9.116;2023-08-20T01:59:11;0.10;;;0.10;;
13552;SDS011;6847;48.830;9.116;2023-08-20T02:01:38;0.10;;;0.10;;
13552;SDS011;6847;48.830;9.116;2023-08-20T02:04:07;0.68;;;0.68;;
13552;SDS011;6847;48.830;9.116;2023-08-20T02:06:35;0.10;;;0.10;;
13552;SDS011;6847;48.830;9.116;2023-08-20T02:09:03;0.10;;;0.10;;
13552;SDS011;6847;48.830;9.116;2023-08-20T02:11:32;0.10;;;0.10;;
13552;SDS011;6847;48.830;9.116;2023-08-20T02:14:00;0.10;;;0.10;;
13552;SDS011;6847;48.830;9.116;2023-08-20T02:16:29;0.10;;;0.10;;
13552;SDS011;6847;48.830;9.116;2023-08-20T02:18:56;0.10;;;0.10;;
13552;SDS011;6847;48.830;9.116;2023-08-20T02:21:24;0.10;;;0.10;;
13552;SDS011;6847;48.830;9.116;2023-08-20T02:23:50;0.10;;;0.10;;
13552;SDS011;6847;48.830;9.116;2023-08-20T02:26:17;0.10;;;0.10;;
13552;SDS011;6847;48.830;9.116;2023-08-20T02:28:43;0.10;;;0.10;;
13552;SDS011;6847;48.830;9.116;2023-08-20T02:31:12;0.10;;;0.10;;
13552;SDS011;6847;48.830;9.116;2023-08-20T02:33:40;0.10;;;0.10;;
13552;SDS011;6847;48.830;9.116;2023-08-20T02:36:08;0.10;;;0.10;;
13552;SDS011;6847;48.830;9.116;2023-08-20T02:38:36;0.10;;;0.10;;
13552;SDS011;6847;48.830;9.116;2023-08-20T02:41:03;0.10;;;0.10;;
13552;SDS011;6847;48.830;9.116;2023-08-20T02:43:30;0.10;;;0.10;;
13552;SDS011;6847;48.830;9.116;2023-08-20T02:45:59;0.10;;;0.10;;
13552;SDS011;6847;48.830;9.116;2023-08-20T02:48:27;0.10;;;0.10;;
13552;SDS011;6847;48.830;9.116;2023-08-20T02:50:56;0.10;;;0.10;;
13552;SDS011;6847;48.830;9.116;2023-08-20T02:53:24;0.10;;;0.10;;
13552;SDS011;6847;48.830;9.116;2023-08-20T02:55:52;0.10;;;0.10;;
13552;SDS011;6847;48.830;9.116;2023-08-20T02:58:19;0.10;;;0.10;;
13552;SDS011;6847;48.830;9.116;2023-08-20T03:00:47;0.10;;;0.10;;
13552;SDS011;6847;48.830;9.116;2023-08-20T03:03:13;0.10;;;0.10;;
13552;SDS011;6847;48.830;9.116;2023-08-20T03:05:41;0.10;;;0.10;;
13552;SDS011;6847;48.830;9.116;2023-08-20T03:08:10;0.10;;;0.10;;
13552;SDS011;6847;48.830;9.116;2023-08-20T03:10:37;0.10;;;0.10;;
13552;SDS011;6847;48.830;9.116;2023-08-20T03:13:07;0.10;;;0.10;;
13552;SDS011;6847;48.830;9.116;2023-08-20T03:15:33;0.10;;;0.10;;
13552;SDS011;6847;48.830;9.116;2023-08-20T03:18:01;0.10;;;0.10;;
13552;SDS011;6847;48.830;9.116;2023-08-20T03:20:28;0.10;;;0.10;;
13552;SDS011;6847;48.830;9.116;2023-08-20T03:22:56;0.10;;;0.10;;
13552;SDS011;6847;48.830;9.116;2023-08-20T03:25:23;0.10;;;0.10;;
13552;SDS011;6847;48.830;9.116;2023-08-20T03:27:51;0.10;;;0.10;;
13552;SDS011;6847;48.830;9.116;2023-08-20T03:30:20;0.10;;;0.10;;
13552;SDS011;6847;48.830;9.116;2023-08-20T03:32:47;0.10;;;0.10;;
13552;SDS011;6847;48.830;9.116;2023-08-20T03:35:13;0.10;;;0.10;;
13552;SDS011;6847;48.830;9.116;2023-08-20T03:37:41;0.10;;;0.10;;
13552;SDS011;6847;48.830;9.116;2023-08-20T03:40:08;0.10;;;0.10;;
13552;SDS011;6847;48.830;9.116;2023-08-20T03:42:35;0.10;;;0.10;;
13552;SDS011;6847;48.830;9.116;2023-08-20T03:45:02;0.13;;;0.13;;
13552;SDS011;6847;48.830;9.116;2023-08-20T03:47:33;0.10;;;0.10;;
13552;SDS011;6847;48.830;9.116;2023-08-20T03:50:00;0.10;;;0.10;;
13552;SDS011;6847;48.830;9.116;2023-08-20T03:52:31;0.10;;;0.10;;
13552;SDS011;6847;48.830;9.116;2023-08-20T03:55:02;0.10;;;0.10;;
13552;SDS011;6847;48.830;9.116;2023-08-20T03:57:31;0.10;;;0.10;;
13552;SDS011;6847;48.830;9.116;2023-08-20T03:59:57;0.10;;;0.10;;
13552;SDS011;6847;48.830;9.116;2023-08-20T04:02:25;0.10;;;0.10;;
13552;SDS011;6847;48.830;9.116;2023-08-20T04:04:56;0.10;;;0.10;;
13552;SDS011;6847;48.830;9.116;2023-08-20T04:07:24;0.10;;;0.10;;
13552;SDS011;6847;48.830;9.116;2023-08-20T04:09:51;0.10;;;0.10;;
13552;SDS011;6847;48.830;9.116;2023-08-20T04:12:17;0.10;;;0.10;;
13552;SDS011;6847;48.830;9.116;2023-08-20T04:14:44;0.10;;;0.10;;
13552;SDS011;6847;48.830;9.116;2023-08-20T04:17:11;0.10;;;0.10;;
13552;SDS011;6847;48.830;9.116;2023-08-20T04:19:38;0.10;;;0.10;;
13552;SDS011;6847;48.830;9.116;2023-08-20T04:22:07;0.10;;;0.10;;
13552;SDS011;6847;48.830;9.116;2023-08-20T04:24:34;0.10;;;0.10;;
13552;SDS011;6847;48.830;9.116;2023-08-20T04:27:02;0.10;;;0.10;;
13552;SDS011;6847;48.830;9.116;2023-08-20T04:29:29;0.10;;;0.10;;
13552;SDS011;6847;48.830;9.116;2023-08-20T04:31:56;0.10;;;0.10;;
13552;SDS011;6847;48.830;9.116;2023-08-20T04:34:23;0.10;;;0.10;;
13552;SDS011;6847;48.830;9.116;2023-08-20T04:36:51;0.10;;;0.10;;
13552;SDS011;6847;48.830;9.116;2023-08-20T04:39:21;0.10;;;0.10;;
13552;SDS011;6847;48.830;9.116;2023-08-20T04:41:47;0.10;;;0.10;;
13552;SDS011;6847;48.830;9.116;2023-08-20T04:44:15;0.10;;;0.10;;
13552;SDS011;6847;48.830;9.116;2023-08-20T04:46:42;0.10;;;0.10;;
13552;SDS011;6847;48.830;9.116;2023-08-20T04:49:08;0.10;;;0.10;;
13552;SDS011;6847;48.830;9.116;2023-08-20T04:51:37;0.10;;;0.10;;
13552;SDS011;6847;48.830;9.116;2023-08-20T04:54:05;0.10;;;0.10;;
13552;SDS011;6847;48.830;9.116;2023-08-20T04:56:33;0.10;;;0.10;;
13552;SDS011;6847;48.830;9.116;2023-08-20T04:59:00;0.10;;;0.10;;
13552;SDS011;6847;48.830;9.116;2023-08-20T05:01:28;0.10;;;0.10;;
13552;SDS011;6847;48.830;9.116;2023-08-20T05:03:55;0.10;;;0.10;;
13552;SDS011;6847;48.830;9.116;2023-08-20T05:06:22;0.10;;;0.10;;
13552;SDS011;6847;48.830;9.116;2023-08-20T05:08:49;0.10;;;0.10;;
13552;SDS011;6847;48.830;9.116;2023-08-20T05:11:17;0.10;;;0.10;;
13552;SDS011;6847;48.830;9.116;2023-08-20T05:13:47;0.10;;;0.10;;
13552;SDS011;6847;48.830;9.116;2023-08-20T05:16:14;0.10;;;0.10;;
13552;SDS011;6847;48.830;9.116;2023-08-20T05:18:41;0.10;;;0.10;;
13552;SDS011;6847;48.830;9.116;2023-08-20T05:21:08;0.10;;;0.10;;
13552;SDS011;6847;48.830;9.116;2023-08-20T05:23:38;0.10;;;0.10;;
13552;SDS011;6847;48.830;9.116;2023-08-20T05:26:09;0.10;;;0.10;;
13552;SDS011;6847;48.830;9.116;2023-08-20T05:28:36;0.10;;;0.10;;
13552;SDS011;6847;48.830;9.116;2023-08-20T05:31:04;0.10;;;0.10;;
13552;SDS011;6847;48.830;9.116;2023-08-20T05:33:31;0.10;;;0.10;;
13552;SDS011;6847;48.830;9.116;2023-08-20T05:35:58;0.10;;;0.10;;
13552;SDS011;6847;48.830;9.116;2023-08-20T05:38:27;0.10;;;0.10;;
13552;SDS011;6847;48.830;9.116;2023-08-20T05:40:53;0.10;;;0.10;;
13552;SDS011;6847;48.830;9.116;2023-08-20T05:43:20;0.10;;;0.10;;
13552;SDS011;6847;48.830;9.116;2023-08-20T05:45:47;0.10;;;0.10;;
13552;SDS011;6847;48.830;9.116;2023-08-20T05:48:15;0.13;;;0.13;;
13552;SDS011;6847;48.830;9.116;2023-08-20T05:50:42;0.10;;;0.10;;
13552;SDS011;6847;48.830;9.116;2023-08-20T05:53:10;0.10;;;0.10;;
13552;SDS011;6847;48.830;9.116;2023-08-20T05:55:38;0.10;;;0.10;;
13552;SDS011;6847;48.830;9.116;2023-08-20T05:58:05;0.10;;;0.10;;
13552;SDS011;6847;48.830;9.116;2023-08-20T06:00:32;0.10;;;0.10;;
13552;SDS011;6847;48.830;9.116;2023-08-20T06:02:59;0.10;;;0.10;;
13552;SDS011;6847;48.830;9.116;2023-08-20T06:05:27;0.13;;;0.13;;
13552;SDS011;6847;48.830;9.116;2023-08-20T06:07:55;0.10;;;0.10;;
13552;SDS011;6847;48.830;9.116;2023-08-20T06:10:22;0.17;;;0.17;;
13552;SDS011;6847;48.830;9.116;2023-08-20T06:12:48;0.10;;;0.10;;
13552;SDS011;6847;48.830;9.116;2023-08-20T06:15:15;0.13;;;0.13;;
13552;SDS011;6847;48.830;9.116;2023-08-20T06:17:42;0.15;;;0.15;;
13552;SDS011;6847;48.830;9.116;2023-08-20T06:20:10;0.20;;;0.20;;
13552;SDS011;6847;48.830;9.116;2023-08-20T06:22:40;0.10;;;0.10;;
13552;SDS011;6847;48.830;9.116;2023-08-20T06:25:07;0.20;;;0.20;;
13552;SDS011;6847;48.830;9.116;2023-08-20T06:27:34;0.10;;;0.10;;
13552;SDS011;6847;48.830;9.116;2023-08-20T06:30:01;0.10;;;0.10;;
13552;SDS011;6847;48.830;9.116;2023-08-20T06:32:29;0.15;;;0.15;;
13552;SDS011;6847;48.830;9.116;2023-08-20T06:34:56;0.10;;;0.10;;
13552;SDS011;6847;48.830;9.116;2023-08-20T06:37:22;0.10;;;0.10;;
13552;SDS011;6847;48.830;9.116;2023-08-20T06:39:57;0.20;;;0.20;;
13552;SDS011;6847;48.830;9.116;2023-08-20T06:42:31;0.10;;;0.10;;
13552;SDS011;6847;48.830;9.116;2023-08-20T06:45:01;0.10;;;0.10;;
13552;SDS011;6847;48.830;9.116;2023-08-20T06:47:27;0.20;;;0.20;;
13552;SDS011;6847;48.830;9.116;2023-08-20T06:49:58;0.15;;;0.15;;
13552;SDS011;6847;48.830;9.116;2023-08-20T06:52:26;0.10;;;0.10;;
13552;SDS011;6847;48.830;9.116;2023-08-20T06:54:55;0.15;;;0.15;;
13552;SDS011;6847;48.830;9.116;2023-08-20T06:57:22;0.10;;;0.10;;
13552;SDS011;6847;48.830;9.116;2023-08-20T06:59:48;0.10;;;0.10;;
13552;SDS011;6847;48.830;9.116;2023-08-20T07:02:15;0.10;;;0.10;;
13552;SDS011;6847;48.830;9.116;2023-08-20T07:04:42;0.10;;;0.10;;
13552;SDS011;6847;48.830;9.116;2023-08-20T07:07:09;0.20;;;0.20;;
13552;SDS011;6847;48.830;9.116;2023-08-20T07:09:36;0.20;;;0.20;;
13552;SDS011;6847;48.830;9.116;2023-08-20T07:12:07;0.20;;;0.20;;
13552;SDS011;6847;48.830;9.116;2023-08-20T07:14:34;0.20;;;0.20;;
13552;SDS011;6847;48.830;9.116;2023-08-20T07:17:00;0.30;;;0.30;;
13552;SDS011;6847;48.830;9.116;2023-08-20T07:19:28;0.10;;;0.10;;
13552;SDS011;6847;48.830;9.116;2023-08-20T07:21:54;0.20;;;0.20;;
13552;SDS011;6847;48.830;9.116;2023-08-20T07:24:21;0.10;;;0.10;;
13552;SDS011;6847;48.830;9.116;2023-08-20T07:26:50;0.10;;;0.10;;
13552;SDS011;6847;48.830;9.116;2023-08-20T07:29:18;0.10;;;0.10;;
13552;SDS011;6847;48.830;9.116;2023-08-20T07:31:44;0.10;;;0.10;;
13552;SDS011;6847;48.830;9.116;2023-08-20T07:34:11;0.20;;;0.20;;
13552;SDS011;6847;48.830;9.116;2023-08-20T07:36:38;0.10;;;0.10;;
13552;SDS011;6847;48.830;9.116;2023-08-20T07:39:05;0.20;;;0.20;;
13552;SDS011;6847;48.830;9.116;2023-08-20T07:41:32;0.20;;;0.20;;
13552;SDS011;6847;48.830;9.116;2023-08-20T07:43:59;0.20;;;0.20;;
13552;SDS011;6847;48.830;9.116;2023-08-20T07:46:29;0.20;;;0.20;;
13552;SDS011;6847;48.830;9.116;2023-08-20T07:48:56;0.10;;;0.10;;
13552;SDS011;6847;48.830;9.116;2023-08-20T07:51:27;0.10;;;0.10;;
13552;SDS011;6847;48.830;9.116;2023-08-20T07:53:55;0.20;;;0.20;;
13552;SDS011;6847;48.830;9.116;2023-08-20T07:56:23;0.10;;;0.10;;
13552;SDS011;6847;48.830;9.116;2023-08-20T07:58:50;0.20;;;0.20;;
13552;SDS011;6847;48.830;9.116;2023-08-20T08:01:19;0.22;;;0.22;;
13552;SDS011;6847;48.830;9.116;2023-08-20T08:03:53;0.28;;;0.28;;
13552;SDS011;6847;48.830;9.116;2023-08-20T08:06:20;0.20;;;0.20;;
13552;SDS011;6847;48.830;9.116;2023-08-20T08:08:49;0.20;;;0.20;;
13552;SDS011;6847;48.830;9.116;2023-08-20T08:11:16;0.20;;;0.20;;
13552;SDS011;6847;48.830;9.116;2023-08-20T08:13:45;0.20;;;0.20;;
13552;SDS011;6847;48.830;9.116;2023-08-20T08:16:14;0.25;;;0.25;;
13552;SDS011;6847;48.830;9.116;2023-08-20T08:18:42;0.28;;;0.28;;
13552;SDS011;6847;48.830;9.116;2023-08-20T08:21:11;0.20;;;0.20;;
13552;SDS011;6847;48.830;9.116;2023-08-20T08:23:38;0.20;;;0.20;;
13552;SDS011;6847;48.830;9.116;2023-08-20T08:26:05;0.20;;;0.20;;
13552;SDS011;6847;48.830;9.116;2023-08-20T08:28:31;0.20;;;0.20;;
13552;SDS011;6847;48.830;9.116;2023-08-20T08:30:58;0.20;;;0.20;;
13552;SDS011;6847;48.830;9.116;2023-08-20T08:33:26;0.25;;;0.25;;
13552;SDS011;6847;48.830;9.116;2023-08-20T08:35:57;0.20;;;0.20;;
13552;SDS011;6847;48.830;9.116;2023-08-20T08:38:25;0.20;;;0.20;;
13552;SDS011;6847;48.830;9.116;2023-08-20T08:40:52;0.20;;;0.20;;
13552;SDS011;6847;48.830;9.116;2023-08-20T08:43:19;0.40;;;0.40;;
13552;SDS011;6847;48.830;9.116;2023-08-20T08:45:47;0.30;;;0.30;;
13552;SDS011;6847;48.830;9.116;2023-08-20T08:48:16;0.40;;;0.40;;
13552;SDS011;6847;48.830;9.116;2023-08-20T08:50:44;0.35;;;0.35;;
13552;SDS011;6847;48.830;9.116;2023-08-20T08:53:12;0.30;;;0.30;;
13552;SDS011;6847;48.830;9.116;2023-08-20T08:55:40;0.28;;;0.28;;
13552;SDS011;6847;48.830;9.116;2023-08-20T08:58:07;0.30;;;0.30;;
13552;SDS011;6847;48.830;9.116;2023-08-20T09:00:38;0.30;;;0.30;;
13552;SDS011;6847;48.830;9.116;2023-08-20T09:03:05;0.38;;;0.38;;
13552;SDS011;6847;48.830;9.116;2023-08-20T09:05:32;0.28;;;0.28;;
13552;SDS011;6847;48.830;9.116;2023-08-20T09:07:59;0.30;;;0.30;;
13552;SDS011;6847;48.830;9.116;2023-08-20T09:10:25;0.20;;;0.20;;
13552;SDS011;6847;48.830;9.116;2023-08-20T09:12:56;0.38;;;0.38;;
13552;SDS011;6847;48.830;9.116;2023-08-20T09:15:29;0.30;;;0.30;;
13552;SDS011;6847;48.830;9.116;2023-08-20T09:18:00;0.32;;;0.32;;
13552;SDS011;6847;48.830;9.116;2023-08-20T09:20:33;0.50;;;0.50;;
13552;SDS011;6847;48.830;9.116;2023-08-20T09:23:02;0.57;;;0.57;;
13552;SDS011;6847;48.830;9.116;2023-08-20T09:25:32;0.40;;;0.40;;
13552;SDS011;6847;48.830;9.116;2023-08-20T09:28:03;0.40;;;0.40;;
13552;SDS011;6847;48.830;9.116;2023-08-20T09:30:34;0.30;;;0.30;;
13552;SDS011;6847;48.830;9.116;2023-08-20T09:33:04;0.22;;;0.22;;
13552;SDS011;6847;48.830;9.116;2023-08-20T09:35:31;0.30;;;0.30;;
13552;SDS011;6847;48.830;9.116;2023-08-20T09:37:59;0.20;;;0.20;;
13552;SDS011;6847;48.830;9.116;2023-08-20T09:40:27;0.30;;;0.30;;
13552;SDS011;6847;48.830;9.116;2023-08-20T09:42:54;0.20;;;0.20;;
13552;SDS011;6847;48.830;9.116;2023-08-20T09:45:23;0.30;;;0.30;;
13552;SDS011;6847;48.830;9.116;2023-08-20T09:47:54;0.28;;;0.28;;
13552;SDS011;6847;48.830;9.116;2023-08-20T09:50:24;0.40;;;0.40;;
13552;SDS011;6847;48.830;9.116;2023-08-20T09:53:03;0.20;;;0.20;;
13552;SDS011;6847;48.830;9.116;2023-08-20T09:55:33;0.68;;;0.68;;
13552;SDS011;6847;48.830;9.116;2023-08-20T09:58:05;0.20;;;0.20;;
13552;SDS011;6847;48.830;9.116;2023-08-20T10:00:33;0.20;;;0.20;;
13552;SDS011;6847;48.830;9.116;2023-08-20T10:03:02;0.20;;;0.20;;
13552;SDS011;6847;48.830;9.116;2023-08-20T10:05:31;0.20;;;0.20;;
13552;SDS011;6847;48.830;9.116;2023-08-20T10:07:59;0.22;;;0.22;;
13552;SDS011;6847;48.830;9.116;2023-08-20T10:10:28;0.20;;;0.20;;
13552;SDS011;6847;48.830;9.116;2023-08-20T10:12:56;0.20;;;0.20;;
13552;SDS011;6847;48.830;9.116;2023-08-20T10:15:23;0.20;;;0.20;;
13552;SDS011;6847;48.830;9.116;2023-08-20T10:17:53;0.68;;;0.68;;
13552;SDS011;6847;48.830;9.116;2023-08-20T10:20:21;0.30;;;0.30;;
13552;SDS011;6847;48.830;9.116;2023-08-20T10:22:48;0.20;;;0.20;;
13552;SDS011;6847;48.830;9.116;2023-08-20T10:25:27;0.30;;;0.30;;
13552;SDS011;6847;48.830;9.116;2023-08-20T10:28:10;0.30;;;0.30;;
13552;SDS011;6847;48.830;9.116;2023-08-20T10:30:38;0.38;;;0.38;;
13552;SDS011;6847;48.830;9.116;2023-08-20T10:33:27;0.30;;;0.30;;
13552;SDS011;6847;48.830;9.116;2023-08-20T10:35:54;0.30;;;0.30;;
13552;SDS011;6847;48.830;9.116;2023-08-20T10:38:22;0.40;;;0.40;;
13552;SDS011;6847;48.830;9.116;2023-08-20T10:40:52;0.40;;;0.40;;
13552;SDS011;6847;48.830;9.116;2023-08-20T10:43:27;0.47;;;0.47;;
13552;SDS011;6847;48.830;9.116;2023-08-20T10:46:08;0.40;;;0.40;;
13552;SDS011;6847;48.830;9.116;2023-08-20T10:48:42;0.30;;;0.30;;
13552;SDS011;6847;48.830;9.116;2023-08-20T10:51:15;0.40;;;0.40;;
13552;SDS011;6847;48.830;9.116;2023-08-20T10:53:43;0.40;;;0.40;;
13552;SDS011;6847;48.830;9.116;2023-08-20T10:56:17;0.40;;;0.40;;
13552;SDS011;6847;48.830;9.116;2023-08-20T10:58:44;0.45;;;0.45;;
13552;SDS011;6847;48.830;9.116;2023-08-20T11:01:21;0.60;;;0.60;;
13552;SDS011;6847;48.830;9.116;2023-08-20T11:03:52;0.50;;;0.50;;
13552;SDS011;6847;48.830;9.116;2023-08-20T11:06:33;0.40;;;0.40;;
13552;SDS011;6847;48.830;9.116;2023-08-20T11:09:02;0.40;;;0.40;;
13552;SDS011;6847;48.830;9.116;2023-08-20T11:11:37;0.47;;;0.47;;
13552;SDS011;6847;48.830;9.116;2023-08-20T11:14:04;0.43;;;0.43;;
13552;SDS011;6847;48.830;9.116;2023-08-20T11:16:33;0.30;;;0.30;;
13552;SDS011;6847;48.830;9.116;2023-08-20T11:19:08;0.60;;;0.60;;
13552;SDS011;6847;48.830;9.116;2023-08-20T11:21:39;0.70;;;0.70;;
13552;SDS011;6847;48.830;9.116;2023-08-20T11:24:07;0.45;;;0.45;;
13552;SDS011;6847;48.830;9.116;2023-08-20T11:26:36;0.45;;;0.45;;
13552;SDS011;6847;48.830;9.116;2023-08-20T11:29:05;0.50;;;0.50;;
13552;SDS011;6847;48.830;9.116;2023-08-20T11:31:33;0.55;;;0.55;;
13552;SDS011;6847;48.830;9.116;2023-08-20T11:34:02;0.35;;;0.35;;
13552;SDS011;6847;48.830;9.116;2023-08-20T11:36:34;0.65;;;0.65;;
13552;SDS011;6847;48.830;9.116;2023-08-20T11:39:02;0.40;;;0.40;;
13552;SDS011;6847;48.830;9.116;2023-08-20T11:41:30;0.50;;;0.50;;
13552;SDS011;6847;48.830;9.116;2023-08-20T11:43:57;0.60;;;0.60;;
13552;SDS011;6847;48.830;9.116;2023-08-20T11:46:24;0.40;;;0.40;;
13552;SDS011;6847;48.830;9.116;2023-08-20T11:48:58;0.52;;;0.52;;
13552;SDS011;6847;48.830;9.116;2023-08-20T11:51:24;0.35;;;0.35;;
13552;SDS011;6847;48.830;9.116;2023-08-20T11:53:56;0.60;;;0.60;;
13552;SDS011;6847;48.830;9.116;2023-08-20T11:56:23;0.50;;;0.50;;
13552;SDS011;6847;48.830;9.116;2023-08-20T11:58:50;0.52;;;0.52;;
13552;SDS011;6847;48.830;9.116;2023-08-20T12:01:17;0.40;;;0.40;;
13552;SDS011;6847;48.830;9.116;2023-08-20T12:03:45;0.60;;;0.60;;
13552;SDS011;6847;48.830;9.116;2023-08-20T12:06:18;0.40;;;0.40;;
13552;SDS011;6847;48.830;9.116;2023-08-20T12:08:46;0.40;;;0.40;;
13552;SDS011;6847;48.830;9.116;2023-08-20T12:11:15;0.40;;;0.40;;
13552;SDS011;6847;48.830;9.116;2023-08-20T12:13:43;0.47;;;0.47;;
13552;SDS011;6847;48.830;9.116;2023-08-20T12:16:10;0.32;;;0.32;;
13552;SDS011;6847;48.830;9.116;2023-08-20T12:18:36;0.43;;;0.43;;
13552;SDS011;6847;48.830;9.116;2023-08-20T12:21:03;0.50;;;0.50;;
13552;SDS011;6847;48.830;9.116;2023-08-20T12:23:30;0.40;;;0.40;;
13552;SDS011;6847;48.830;9.116;2023-08-20T12:25:57;0.38;;;0.38;;
13552;SDS011;6847;48.830;9.116;2023-08-20T12:28:26;0.40;;;0.40;;
13552;SDS011;6847;48.830;9.116;2023-08-20T12:30:56;0.30;;;0.30;;
13552;SDS011;6847;48.830;9.116;2023-08-20T12:33:24;0.30;;;0.30;;
13552;SDS011;6847;48.830;9.116;2023-08-20T12:35:53;0.40;;;0.40;;
13552;SDS011;6847;48.830;9.116;2023-08-20T12:38:21;0.30;;;0.30;;
13552;SDS011;6847;48.830;9.116;2023-08-20T12:40:47;0.40;;;0.40;;
13552;SDS011;6847;48.830;9.116;2023-08-20T12:43:17;0.50;;;0.50;;
13552;SDS011;6847;48.830;9.116;2023-08-20T12:45:45;0.60;;;0.60;;
13552;SDS011;6847;48.830;9.116;2023-08-20T12:48:12;0.40;;;0.40;;
13552;SDS011;6847;48.830;9.116;2023-08-20T12:50:41;0.47;;;0.47;;
13552;SDS011;6847;48.830;9.116;2023-08-20T12:53:09;0.43;;;0.43;;
13552;SDS011;6847;48.830;9.116;2023-08-20T12:55:42;0.50;;;0.50;;
13552;SDS011;6847;48.830;9.116;2023-08-20T12:58:10;0.60;;;0.60;;
13552;SDS011;6847;48.830;9.116;2023-08-20T13:00:38;0.63;;;0.63;;
13552;SDS011;6847;48.830;9.116;2023-08-20T13:03:10;0.45;;;0.45;;
13552;SDS011;6847;48.830;9.116;2023-08-20T13:05:37;0.50;;;0.50;;
13552;SDS011;6847;48.830;9.116;2023-08-20T13:08:06;0.57;;;0.57;;
13552;SDS011;6847;48.830;9.116;2023-08-20T13:10:36;0.63;;;0.63;;
13552;SDS011;6847;48.830;9.116;2023-08-20T13:13:03;0.43;;;0.43;;
13552;SDS011;6847;48.830;9.116;2023-08-20T13:15:31;0.80;;;0.80;;
13552;SDS011;6847;48.830;9.116;2023-08-20T13:18:00;0.60;;;0.60;;
13552;SDS011;6847;48.830;9.116;2023-08-20T13:20:28;0.60;;;0.60;;
13552;SDS011;6847;48.830;9.116;2023-08-20T13:22:55;0.50;;;0.50;;
13552;SDS011;6847;48.830;9.116;2023-08-20T13:25:22;0.50;;;0.50;;
13552;SDS011;6847;48.830;9.116;2023-08-20T13:27:50;0.47;;;0.47;;
13552;SDS011;6847;48.830;9.116;2023-08-20T13:30:19;0.50;;;0.50;;
13552;SDS011;6847;48.830;9.116;2023-08-20T13:32:46;0.50;;;0.50;;
13552;SDS011;6847;48.830;9.116;2023-08-20T13:35:14;0.68;;;0.68;;
13552;SDS011;6847;48.830;9.116;2023-08-20T13:37:42;0.75;;;0.75;;
13552;SDS011;6847;48.830;9.116;2023-08-20T13:40:10;0.70;;;0.70;;
13552;SDS011;6847;48.830;9.116;2023-08-20T13:42:37;0.70;;;0.70;;
13552;SDS011;6847;48.830;9.116;2023-08-20T13:45:05;0.70;;;0.70;;
13552;SDS011;6847;48.830;9.116;2023-08-20T13:47:32;0.73;;;0.73;;
13552;SDS011;6847;48.830;9.116;2023-08-20T13:50:03;0.88;;;0.88;;
13552;SDS011;6847;48.830;9.116;2023-08-20T13:52:30;0.70;;;0.70;;
13552;SDS011;6847;48.830;9.116;2023-08-20T13:54:59;0.93;;;0.93;;
13552;SDS011;6847;48.830;9.116;2023-08-20T13:57:26;0.70;;;0.70;;
13552;SDS011;6847;48.830;9.116;2023-08-20T13:59:54;0.90;;;0.90;;
13552;SDS011;6847;48.830;9.116;2023-08-20T14:02:24;0.68;;;0.68;;
13552;SDS011;6847;48.830;9.116;2023-08-20T14:04:51;0.80;;;0.80;;
13552;SDS011;6847;48.830;9.116;2023-08-20T14:07:18;0.80;;;0.80;;
13552;SDS011;6847;48.830;9.116;2023-08-20T14:09:44;0.80;;;0.80;;
13552;SDS011;6847;48.830;9.116;2023-08-20T14:12:12;1.00;;;1.00;;
13552;SDS011;6847;48.830;9.116;2023-08-20T14:14:39;1.38;;;1.30;;
13552;SDS011;6847;48.830;9.116;2023-08-20T14:17:06;0.63;;;0.63;;
13552;SDS011;6847;48.830;9.116;2023-08-20T14:19:34;0.80;;;0.80;;
13552;SDS011;6847;48.830;9.116;2023-08-20T14:22:01;0.90;;;0.90;;
13552;SDS011;6847;48.830;9.116;2023-08-20T14:24:27;0.98;;;0.98;;
13552;SDS011;6847;48.830;9.116;2023-08-20T14:26:54;1.00;;;1.00;;
13552;SDS011;6847;48.830;9.116;2023-08-20T14:29:22;1.00;;;1.00;;
13552;SDS011;6847;48.830;9.116;2023-08-20T14:31:49;0.80;;;0.80;;
13552;SDS011;6847;48.830;9.116;2023-08-20T14:34:16;1.10;;;1.10;;
13552;SDS011;6847;48.830;9.116;2023-08-20T14:36:43;0.80;;;0.80;;
13552;SDS011;6847;48.830;9.116;2023-08-20T14:39:10;0.73;;;0.73;;
13552;SDS011;6847;48.830;9.116;2023-08-20T14:41:37;0.90;;;0.90;;
13552;SDS011;6847;48.830;9.116;2023-08-20T14:44:06;0.80;;;0.80;;
13552;SDS011;6847;48.830;9.116;2023-08-20T14:46:34;0.95;;;0.95;;
13552;SDS011;6847;48.830;9.116;2023-08-20T14:49:01;0.90;;;0.90;;
13552;SDS011;6847;48.830;9.116;2023-08-20T14:51:31;0.80;;;0.80;;
13552;SDS011;6847;48.830;9.116;2023-08-20T14:53:59;0.75;;;0.75;;
13552;SDS011;6847;48.830;9.116;2023-08-20T14:56:26;0.63;;;0.63;;
13552;SDS011;6847;48.830;9.116;2023-08-20T14:58:54;0.80;;;0.80;;
13552;SDS011;6847;48.830;9.116;2023-08-20T15:01:22;0.77;;;0.77;;
13552;SDS011;6847;48.830;9.116;2023-08-20T15:03:50;0.52;;;0.52;;
13552;SDS011;6847;48.830;9.116;2023-08-20T15:06:17;0.50;;;0.50;;
13552;SDS011;6847;48.830;9.116;2023-08-20T15:08:46;0.55;;;0.55;;
13552;SDS011;6847;48.830;9.116;2023-08-20T15:11:13;0.40;;;0.40;;